OEMA/MED METAR and TAF weather

Enter ICAO airport designator
Station Type Date Time Source
OEMA METAR 2018/12/19 09:00 UTC NOAA

OEMA 190900Z 11010KT CAVOK 24/06 Q1021 NOSIG


Station Type Date Time Source
OEMA Decoded METAR 2018/12/19 09:00 UTC NOAA

Madinah, Saudi Arabia (OEMA) 24-33N 039-42E 636M
Dec 19, 2018 - 04:00 AM EST / 2018.12.19 0900 UTC
Wind: from the ESE (110 degrees) at 12 MPH (10 KT):0
Visibility: greater than 7 mile(s):0
Temperature: 75 F (24 C)
Dew Point: 42 F (6 C)
Relative Humidity: 31%
Pressure (altimeter): 30.15 in. Hg (1021 hPa)
ob: OEMA 190900Z 11010KT CAVOK 24/06 Q1021 NOSIG
cycle: 9

Station Type Date Time Source
OEMA TAF 2018/12/19 06:03 UTC NOAA

TAF OEMA 190500Z 1906/2012 12006G16KT 7000 FEW045 SCT100
BECMG 1910/1912 19012KT
BECMG 1916/1918 VRB03KT


Example: see airport list